Time;durP1;ratioP1;P1;durP2;ratioP2;P2;SDS_P1;SDS_P2;PMS_P1;PMS_P2;Temp;Humidity;BMP_temperature;BMP_pressure;BME280_temperature;BME280_humidity;BME280_pressure;Samples;Min_cycle;Max_cycle;Signal;HPM_P1;HPM_P2
2022/10/26 00:01:12;;;;;;;11.05;3.47;;;;;;;10.22;100.00;95812.66;5031102;28;20037;-67
2022/10/26 00:03:40;;;;;;;17.38;3.47;;;;;;;10.20;100.00;95825.13;5030290;28;20048;-67
2022/10/26 00:06:17;;;;;;;12.63;4.10;;;;;;;10.15;100.00;95811.53;5030562;28;20029;-67
2022/10/26 00:08:43;;;;;;;9.90;4.00;;;;;;;10.16;100.00;95813.22;5030136;28;20029;-67
2022/10/26 00:11:10;;;;;;;14.25;4.00;;;;;;;10.12;100.00;95801.31;5030195;28;20087;-67
2022/10/26 00:13:36;;;;;;;9.73;4.00;;;;;;;10.11;100.00;95810.16;5017933;28;20036;-70
2022/10/26 00:16:10;;;;;;;11.20;3.40;;;;;;;10.11;100.00;95826.75;5030286;28;20132;-67
2022/10/26 00:18:36;;;;;;;9.30;3.97;;;;;;;10.08;100.00;95820.97;5030481;28;20091;-67
2022/10/26 00:21:03;;;;;;;15.68;4.28;;;;;;;10.24;100.00;95834.41;5029072;28;20041;-68
2022/10/26 00:23:28;;;;;;;6.18;3.70;;;;;;;10.19;100.00;95828.72;5029587;28;20529;-67
2022/10/26 00:25:55;;;;;;;6.57;3.78;;;;;;;10.20;100.00;95850.63;5030151;28;20030;-67
2022/10/26 00:28:20;;;;;;;9.05;3.80;;;;;;;10.29;100.00;95844.53;5029693;28;20551;-66
2022/10/26 00:30:46;;;;;;;11.82;4.20;;;;;;;10.27;100.00;95852.53;5030104;28;20100;-68
2022/10/26 00:33:12;;;;;;;13.85;3.70;;;;;;;10.30;100.00;95854.91;5029977;28;20113;-70
2022/10/26 00:35:38;;;;;;;18.42;3.67;;;;;;;10.38;100.00;95842.88;5029848;28;20037;-67
2022/10/26 00:38:03;;;;;;;7.88;3.50;;;;;;;10.36;100.00;95835.09;5030320;28;20092;-67
2022/10/26 00:40:29;;;;;;;8.82;4.00;;;;;;;10.32;100.00;95838.97;5029610;28;20578;-67
2022/10/26 00:42:54;;;;;;;6.80;3.20;;;;;;;10.40;100.00;95843.56;5030175;28;20210;-67
2022/10/26 00:45:26;;;;;;;8.35;3.42;;;;;;;10.37;100.00;95835.94;5029692;28;20025;-67
2022/10/26 00:48:08;;;;;;;13.02;3.38;;;;;;;10.39;100.00;95834.00;5030317;28;20017;-67
2022/10/26 00:50:38;;;;;;;8.15;3.80;;;;;;;10.53;100.00;95825.75;5030156;28;20020;-69
2022/10/26 00:53:05;;;;;;;10.00;3.35;;;;;;;10.54;100.00;95834.47;5029999;28;20036;-60
2022/10/26 00:55:37;;;;;;;5.22;3.17;;;;;;;10.61;100.00;95817.16;5029326;28;20057;-67
2022/10/26 00:58:05;;;;;;;9.43;3.53;;;;;;;10.67;100.00;95802.59;5029737;28;20487;-67
2022/10/26 01:00:31;;;;;;;9.82;4.10;;;;;;;10.86;100.00;95810.47;5029385;28;20022;-67
2022/10/26 01:03:02;;;;;;;12.27;3.67;;;;;;;10.96;100.00;95817.53;5029616;28;20036;-67
2022/10/26 01:05:29;;;;;;;19.75;3.60;;;;;;;10.89;100.00;95819.91;5016768;28;20026;-67
2022/10/26 01:07:54;;;;;;;11.23;3.00;;;;;;;11.00;100.00;95832.09;5016776;28;20049;-67
2022/10/26 01:10:20;;;;;;;9.20;3.88;;;;;;;11.05;100.00;95850.94;5029520;28;20068;-70
2022/10/26 01:12:46;;;;;;;8.88;3.50;;;;;;;11.18;100.00;95872.56;5029958;28;20499;-66
2022/10/26 01:15:12;;;;;;;8.90;3.30;;;;;;;11.37;100.00;95872.66;5029497;28;20029;-66
2022/10/26 01:17:54;;;;;;;10.02;3.55;;;;;;;11.53;100.00;95890.50;5029882;28;20483;-65
2022/10/26 01:20:53;;;;;;;13.95;3.63;;;;;;;11.46;100.00;95906.91;5029353;28;20101;-66
2022/10/26 01:23:24;;;;;;;13.55;3.08;;;;;;;11.41;100.00;95909.13;5017599;28;20075;-65
2022/10/26 01:25:55;;;;;;;11.85;3.75;;;;;;;11.43;100.00;95911.63;5032751;28;20037;-65
2022/10/26 01:28:45;;;;;;;8.90;3.90;;;;;;;11.53;100.00;95920.34;5033185;28;20402;-65
2022/10/26 01:31:17;;;;;;;21.38;3.72;;;;;;;11.57;100.00;95913.81;5033472;28;20584;-71
2022/10/26 01:34:01;;;;;;;9.63;2.88;;;;;;;11.55;100.00;95909.63;5032687;28;20283;-70
2022/10/26 01:36:36;;;;;;;5.63;3.10;;;;;;;11.47;100.00;95920.91;5032124;28;20114;-70
2022/10/26 01:39:27;;;;;;;11.82;3.30;;;;;;;11.53;100.00;95916.88;5033094;28;20494;-69
2022/10/26 01:41:58;;;;;;;6.40;3.20;;;;;;;11.59;100.00;95922.41;5032899;28;20034;-69
2022/10/26 01:44:41;;;;;;;10.13;3.03;;;;;;;11.69;100.00;95924.19;5032670;28;20032;-69
2022/10/26 01:47:10;;;;;;;12.30;3.25;;;;;;;11.73;100.00;95928.22;5028799;28;20010;-69
2022/10/26 01:49:40;;;;;;;12.77;3.08;;;;;;;11.79;100.00;95938.19;5032860;28;20022;-65
2022/10/26 01:52:09;;;;;;;13.68;3.38;;;;;;;11.86;100.00;95943.72;5033206;28;20025;-66
2022/10/26 01:54:35;;;;;;;9.10;2.90;;;;;;;11.88;100.00;95960.22;5032748;28;20120;-71
2022/10/26 01:57:04;;;;;;;5.70;3.10;;;;;;;11.87;100.00;95961.22;5032929;28;20021;-70
2022/10/26 02:00:16;;;;;;;6.45;2.53;;;;;;;11.84;100.00;95972.06;5032574;28;20116;-70
2022/10/26 02:02:59;;;;;;;11.40;3.67;;;;;;;11.74;100.00;95967.63;5026804;28;20044;-70
2022/10/26 02:05:38;;;;;;;5.72;3.28;;;;;;;11.70;100.00;95958.34;5031582;28;21491;-70
2022/10/26 02:08:42;;;;;;;6.57;3.10;;;;;;;11.65;100.00;95955.28;5032647;28;20036;-70
2022/10/26 02:11:22;;;;;;;7.97;3.10;;;;;;;11.95;100.00;95958.69;5027211;28;20036;-60
2022/10/26 02:13:54;;;;;;;7.25;3.28;;;;;;;12.10;100.00;95972.25;5032517;28;20531;-65
2022/10/26 02:16:36;;;;;;;8.25;2.95;;;;;;;11.98;100.00;95968.94;5032374;28;20051;-66
2022/10/26 02:19:13;;;;;;;5.45;3.30;;;;;;;11.83;100.00;95968.56;5026232;28;20104;-66
2022/10/26 02:21:50;;;;;;;5.80;3.00;;;;;;;11.78;100.00;95973.44;5032186;28;20028;-65
2022/10/26 02:24:16;;;;;;;8.13;4.50;;;;;;;11.68;100.00;95975.25;5032730;28;20029;-65
2022/10/26 02:26:46;;;;;;;9.65;3.03;;;;;;;11.68;100.00;95973.47;5032377;28;20041;-65
2022/10/26 02:29:16;;;;;;;9.43;3.50;;;;;;;11.63;100.00;95969.59;5032666;28;20091;-67
2022/10/26 02:31:45;;;;;;;9.05;3.00;;;;;;;11.79;100.00;95975.09;5031437;28;20483;-61
2022/10/26 02:34:13;;;;;;;15.38;3.15;;;;;;;12.07;100.00;95980.47;5032229;28;20509;-60
2022/10/26 02:36:44;;;;;;;6.60;3.53;;;;;;;11.88;100.00;95992.72;5030509;28;20434;-60
2022/10/26 02:39:12;;;;;;;4.97;3.40;;;;;;;11.80;100.00;95991.75;5032036;28;20033;-60
2022/10/26 02:41:40;;;;;;;7.60;3.08;;;;;;;11.68;100.00;95991.09;5031853;28;20033;-61
2022/10/26 02:44:17;;;;;;;8.10;4.07;;;;;;;11.61;100.00;95994.28;5032037;28;20372;-61
2022/10/26 02:46:43;;;;;;;7.35;3.50;;;;;;;11.59;100.00;95995.41;5032085;28;20384;-60
2022/10/26 02:49:09;;;;;;;11.77;3.40;;;;;;;11.57;100.00;95999.97;5032002;28;20032;-70
2022/10/26 02:51:39;;;;;;;10.98;3.28;;;;;;;11.68;100.00;96001.63;5031834;28;20021;-67
2022/10/26 02:54:52;;;;;;;9.68;3.70;;;;;;;11.76;100.00;96001.78;5031926;28;20056;-68
2022/10/26 02:57:28;;;;;;;13.93;3.40;;;;;;;11.66;100.00;95999.16;5014247;28;20115;-67
2022/10/26 02:59:55;;;;;;;12.77;6.60;;;;;;;11.64;100.00;96008.16;5030854;28;20091;-68
2022/10/26 03:02:21;;;;;;;8.88;3.22;;;;;;;11.66;100.00;96007.06;5030238;28;20535;-68
2022/10/26 03:04:49;;;;;;;5.57;3.20;;;;;;;11.69;100.00;96021.75;5031920;28;20022;-68
2022/10/26 03:07:24;;;;;;;13.23;3.25;;;;;;;11.67;100.00;96015.78;5031513;28;20487;-70
2022/10/26 03:09:50;;;;;;;17.40;4.55;;;;;;;11.60;100.00;96007.59;5031995;28;20028;-65
2022/10/26 03:12:15;;;;;;;4.55;3.72;;;;;;;11.54;100.00;96013.44;5031934;28;20030;-70
2022/10/26 03:14:41;;;;;;;7.95;3.13;;;;;;;11.49;100.00;96005.13;5031416;28;20029;-69
2022/10/26 03:17:07;;;;;;;7.68;3.67;;;;;;;11.45;100.00;96008.06;5031517;28;20022;-70
2022/10/26 03:19:32;;;;;;;5.93;3.65;;;;;;;11.47;100.00;96005.25;5031346;28;20029;-70
2022/10/26 03:21:57;;;;;;;9.35;4.22;;;;;;;11.46;100.00;96006.22;5031934;28;20432;-69
2022/10/26 03:24:23;;;;;;;7.82;3.60;;;;;;;11.43;100.00;96007.38;5030993;28;20495;-70
2022/10/26 03:26:48;;;;;;;7.43;3.40;;;;;;;11.46;100.00;96017.63;5031340;28;20025;-69
2022/10/26 03:29:13;;;;;;;11.77;3.85;;;;;;;11.52;100.00;96018.03;5031472;28;20025;-61
2022/10/26 03:31:39;;;;;;;9.63;3.80;;;;;;;11.55;100.00;96013.31;5046192;28;20503;-60
2022/10/26 03:34:04;;;;;;;6.70;3.28;;;;;;;11.55;100.00;96023.88;5031365;28;20037;-60
2022/10/26 03:36:30;;;;;;;6.90;3.42;;;;;;;11.56;100.00;96028.16;5030586;28;20491;-60
2022/10/26 03:38:55;;;;;;;7.88;3.40;;;;;;;11.56;100.00;96035.22;5031297;28;20392;-60
2022/10/26 03:41:20;;;;;;;16.48;3.65;;;;;;;11.55;100.00;96038.84;5031013;28;20025;-60
2022/10/26 03:43:47;;;;;;;8.50;3.78;;;;;;;11.52;100.00;96033.84;5031039;28;20032;-60
2022/10/26 03:46:12;;;;;;;10.10;3.88;;;;;;;11.50;100.00;96038.44;5030547;28;20043;-65
2022/10/26 03:48:38;;;;;;;14.50;4.05;;;;;;;11.50;100.00;96046.34;5046142;28;20025;-65
2022/10/26 03:51:03;;;;;;;11.27;6.88;;;;;;;11.50;100.00;96039.28;5030514;28;20020;-60
2022/10/26 03:53:28;;;;;;;16.25;5.05;;;;;;;11.44;100.00;96051.22;5030893;28;20030;-60
2022/10/26 03:55:54;;;;;;;10.77;4.75;;;;;;;11.43;100.00;96051.34;5030457;28;20041;-60
2022/10/26 03:58:19;;;;;;;8.05;4.30;;;;;;;11.44;100.00;96045.94;5030702;28;20437;-60
2022/10/26 04:00:45;;;;;;;9.15;3.95;;;;;;;11.44;100.00;96053.00;5030266;28;20021;-60
2022/10/26 04:03:11;;;;;;;6.45;3.70;;;;;;;11.44;100.00;96051.22;5030572;28;20025;-60
2022/10/26 04:05:36;;;;;;;6.95;3.75;;;;;;;11.44;100.00;96047.72;5030729;28;20074;-65
2022/10/26 04:08:02;;;;;;;7.72;4.50;;;;;;;11.43;100.00;96048.69;5030740;28;20029;-65
2022/10/26 04:10:27;;;;;;;14.75;4.97;;;;;;;11.41;100.00;96050.63;5030342;28;20530;-66
2022/10/26 04:12:53;;;;;;;6.95;4.25;;;;;;;11.40;100.00;96048.97;5030266;28;20022;-65
2022/10/26 04:15:20;;;;;;;8.40;3.70;;;;;;;11.38;100.00;96051.75;5029288;28;20025;-65
2022/10/26 04:17:45;;;;;;;16.25;3.53;;;;;;;11.36;100.00;96051.03;5030138;28;20479;-65
2022/10/26 04:20:11;;;;;;;8.60;3.92;;;;;;;11.33;100.00;96051.31;5030429;28;20040;-65
2022/10/26 04:22:37;;;;;;;6.18;3.95;;;;;;;11.32;100.00;96047.88;5029921;28;20025;-65
2022/10/26 04:25:04;;;;;;;13.75;5.13;;;;;;;11.36;100.00;96058.94;5029972;28;20028;-69
2022/10/26 04:27:29;;;;;;;8.32;3.85;;;;;;;11.40;100.00;96052.47;5030619;28;20033;-67
2022/10/26 04:29:54;;;;;;;8.63;4.55;;;;;;;11.39;100.00;96057.84;5030111;28;20029;-67
2022/10/26 04:32:20;;;;;;;15.45;4.22;;;;;;;11.35;100.00;96064.38;5030085;28;20029;-67
2022/10/26 04:34:45;;;;;;;14.32;4.47;;;;;;;11.32;100.00;96060.22;5029728;28;20025;-67
2022/10/26 04:37:11;;;;;;;8.35;3.95;;;;;;;11.30;100.00;96064.78;5029904;28;20391;-67
2022/10/26 04:39:36;;;;;;;13.18;4.18;;;;;;;11.25;100.00;96064.38;5029731;28;20025;-67
2022/10/26 04:42:02;;;;;;;9.40;4.07;;;;;;;11.20;100.00;96064.78;5030018;28;20029;-67
2022/10/26 04:44:27;;;;;;;10.13;4.15;;;;;;;11.18;100.00;96074.63;5030076;28;20487;-60
2022/10/26 04:46:52;;;;;;;8.15;4.25;;;;;;;11.17;100.00;96076.44;5029845;28;20087;-67
2022/10/26 04:49:18;;;;;;;8.30;4.40;;;;;;;11.15;100.00;96078.34;5029746;28;20056;-65
2022/10/26 04:51:43;;;;;;;9.93;3.70;;;;;;;11.13;100.00;96080.28;5029772;28;20146;-65
2022/10/26 04:54:08;;;;;;;10.48;4.03;;;;;;;11.11;100.00;96076.97;5029650;28;20021;-65
2022/10/26 04:56:34;;;;;;;11.52;3.92;;;;;;;11.06;100.00;96079.19;5029439;28;20179;-64
2022/10/26 04:59:00;;;;;;;8.85;4.00;;;;;;;10.99;100.00;96078.88;5028689;28;20109;-65
2022/10/26 05:01:25;;;;;;;10.80;3.97;;;;;;;10.93;100.00;96071.53;5045190;28;20033;-65
2022/10/26 05:03:51;;;;;;;7.88;4.32;;;;;;;10.87;100.00;96078.16;5029521;28;20056;-60
2022/10/26 05:06:18;;;;;;;9.27;4.28;;;;;;;10.84;100.00;96085.50;5029688;28;20033;-66
2022/10/26 05:08:43;;;;;;;8.05;3.92;;;;;;;10.78;100.00;96084.25;5029417;28;20018;-65
2022/10/26 05:11:09;;;;;;;9.75;4.28;;;;;;;10.70;100.00;96084.06;5029034;28;20052;-65
2022/10/26 05:13:34;;;;;;;8.25;3.47;;;;;;;10.65;100.00;96089.72;5029606;28;20056;-65
2022/10/26 05:16:00;;;;;;;9.77;3.65;;;;;;;10.59;100.00;96093.72;5029768;28;20021;-64
2022/10/26 05:18:25;;;;;;;10.25;3.67;;;;;;;10.56;100.00;96093.16;5029797;28;20032;-65
2022/10/26 05:20:54;;;;;;;9.55;4.97;;;;;;;10.48;100.00;96100.88;5029127;28;20112;-64
2022/10/26 05:23:20;;;;;;;11.65;4.55;;;;;;;10.42;100.00;96100.44;5029847;28;20064;-67
2022/10/26 05:25:46;;;;;;;10.45;4.63;;;;;;;10.41;100.00;96106.69;5029121;28;20455;-67
2022/10/26 05:28:13;;;;;;;8.48;4.70;;;;;;;10.37;100.00;96099.13;5028891;28;20052;-68
2022/10/26 05:30:44;;;;;;;8.82;6.18;;;;;;;10.31;100.00;96097.84;5029525;28;20055;-67
2022/10/26 05:33:11;;;;;;;10.68;4.65;;;;;;;10.30;100.00;96106.72;5029205;28;20017;-67
2022/10/26 05:35:37;;;;;;;10.35;4.35;;;;;;;10.29;100.00;96100.63;5029398;28;20037;-67
2022/10/26 05:38:11;;;;;;;6.35;4.40;;;;;;;10.27;100.00;96106.97;5029425;28;20029;-67
2022/10/26 05:40:36;;;;;;;10.18;4.97;;;;;;;10.23;100.00;96102.94;5028187;28;20559;-67
2022/10/26 05:43:02;;;;;;;11.80;4.85;;;;;;;10.17;100.00;96109.53;5028658;28;20112;-68
2022/10/26 05:45:28;;;;;;;9.38;4.97;;;;;;;10.18;100.00;96108.56;5028718;28;20033;-65
2022/10/26 05:47:53;;;;;;;19.75;5.38;;;;;;;10.19;100.00;96112.88;5028130;28;20029;-65
2022/10/26 05:50:18;;;;;;;8.98;5.10;;;;;;;10.12;100.00;96119.63;5029442;28;20443;-66
2022/10/26 05:52:45;;;;;;;10.88;5.38;;;;;;;10.11;100.00;96120.59;5028976;28;20029;-66
2022/10/26 05:55:13;;;;;;;10.23;5.38;;;;;;;10.06;100.00;96117.47;5028715;28;20471;-65
2022/10/26 05:57:40;;;;;;;9.57;4.63;;;;;;;9.97;100.00;96119.94;5028796;28;20025;-65
2022/10/26 06:00:08;;;;;;;13.07;5.38;;;;;;;9.94;100.00;96117.56;5022397;28;20097;-66
2022/10/26 06:02:58;;;;;;;9.20;5.07;;;;;;;9.89;100.00;96120.56;5023055;28;20505;-65
2022/10/26 06:05:27;;;;;;;10.43;5.05;;;;;;;9.84;100.00;96122.75;5029439;28;20021;-70
2022/10/26 06:07:52;;;;;;;9.57;4.85;;;;;;;9.82;100.00;96123.81;5028753;28;20026;-70
2022/10/26 06:10:18;;;;;;;12.75;6.10;;;;;;;9.80;100.00;96123.97;5029196;28;20078;-70
2022/10/26 06:12:44;;;;;;;10.05;5.70;;;;;;;9.78;100.00;96125.03;5032280;28;20025;-71
2022/10/26 06:15:19;;;;;;;10.43;5.13;;;;;;;9.86;100.00;96130.53;5032857;28;20072;-70
2022/10/26 06:17:52;;;;;;;11.95;5.25;;;;;;;9.78;100.00;96125.03;5032591;28;20449;-71
2022/10/26 06:20:39;;;;;;;12.57;5.18;;;;;;;9.75;100.00;96136.66;5032403;28;20025;-69
2022/10/26 06:23:29;;;;;;;15.63;5.72;;;;;;;9.71;100.00;96143.97;5022080;28;20021;-66
2022/10/26 06:26:11;;;;;;;8.68;5.03;;;;;;;9.70;100.00;96137.03;5032350;28;20040;-66
2022/10/26 06:29:17;;;;;;;16.98;5.47;;;;;;;9.69;100.00;96143.25;5032472;28;20021;-66
2022/10/26 06:31:44;;;;;;;13.10;5.57;;;;;;;9.66;100.00;96147.91;5032242;28;20124;-66
2022/10/26 06:34:10;;;;;;;11.27;5.00;;;;;;;9.66;100.00;96148.75;5032219;28;20468;-67
2022/10/26 06:36:39;;;;;;;9.43;5.07;;;;;;;9.65;100.00;96147.09;5031986;28;20029;-65
2022/10/26 06:39:11;;;;;;;10.50;5.43;;;;;;;9.64;100.00;96149.84;5032483;28;20021;-66
2022/10/26 06:41:37;;;;;;;11.15;5.93;;;;;;;9.62;100.00;96157.88;5032383;28;20021;-65
2022/10/26 06:44:03;;;;;;;19.85;5.82;;;;;;;9.65;100.00;96165.50;5032338;28;20079;-60
2022/10/26 06:46:29;;;;;;;11.73;5.82;;;;;;;9.70;100.00;96165.09;5019386;28;20673;-60
2022/10/26 06:49:22;;;;;;;14.15;5.95;;;;;;;9.68;100.00;96173.13;5031811;28;20025;-59
2022/10/26 06:52:06;;;;;;;13.50;6.40;;;;;;;9.67;100.00;96184.63;5022925;28;20091;-60
2022/10/26 06:54:52;;;;;;;12.15;5.45;;;;;;;9.66;100.00;96180.31;5031798;28;20087;-59
2022/10/26 06:57:18;;;;;;;;;;;;;;;9.70;100.00;96184.34;5032242;28;20033;-60
2022/10/26 06:59:57;;;;;;;10.82;5.20;;;;;;;9.70;100.00;96187.00;5031710;28;20032;-68
2022/10/26 07:02:23;;;;;;;12.68;5.43;;;;;;;9.72;100.00;96184.22;5031893;28;20029;-59
2022/10/26 07:04:48;;;;;;;11.43;5.47;;;;;;;9.71;100.00;96193.91;5031502;28;20022;-60
2022/10/26 07:07:20;;;;;;;10.98;5.45;;;;;;;9.72;100.00;96197.38;5031420;28;20013;-60
2022/10/26 07:09:45;;;;;;;14.75;5.65;;;;;;;9.74;100.00;96198.91;5031468;28;20515;-59
2022/10/26 07:12:11;;;;;;;14.77;5.72;;;;;;;9.77;100.00;96204.88;5031458;28;20021;-60
2022/10/26 07:14:36;;;;;;;9.05;4.82;;;;;;;9.75;100.00;96205.84;5031486;28;20372;-59
2022/10/26 07:17:02;;;;;;;13.38;5.03;;;;;;;9.79;100.00;96208.22;5046571;28;20025;-59
2022/10/26 07:19:28;;;;;;;10.02;5.00;;;;;;;9.81;100.00;96207.16;5031238;28;20022;-66
2022/10/26 07:21:55;;;;;;;7.78;5.05;;;;;;;9.83;100.00;96217.53;5031056;28;20029;-60
2022/10/26 07:24:22;;;;;;;12.73;5.65;;;;;;;9.83;100.00;96218.38;5030997;28;20514;-60
2022/10/26 07:26:47;;;;;;;9.65;5.65;;;;;;;9.85;100.00;96219.09;5030918;28;20498;-60
2022/10/26 07:29:13;;;;;;;20.45;5.65;;;;;;;9.86;100.00;96218.13;5031327;28;20109;-60
2022/10/26 07:31:38;;;;;;;13.43;5.43;;;;;;;9.86;100.00;96227.81;5031356;28;20064;-60
2022/10/26 07:34:04;;;;;;;15.60;6.15;;;;;;;9.85;100.00;96234.88;5031135;28;20078;-60
2022/10/26 07:36:29;;;;;;;14.38;5.78;;;;;;;9.89;100.00;96230.22;5030757;28;20120;-59
2022/10/26 07:38:54;;;;;;;10.73;5.60;;;;;;;9.92;100.00;96235.22;5031138;28;20033;-65
2022/10/26 07:41:20;;;;;;;11.43;5.68;;;;;;;10.00;100.00;96235.41;5030668;28;20407;-67
2022/10/26 07:43:46;;;;;;;13.55;5.32;;;;;;;10.03;100.00;96229.06;5030915;28;20053;-67
2022/10/26 07:46:12;;;;;;;12.13;5.82;;;;;;;10.04;100.00;96234.19;5030880;28;20017;-66
2022/10/26 07:48:38;;;;;;;12.63;7.47;;;;;;;10.06;100.00;96239.34;5030974;28;20020;-66
2022/10/26 07:51:04;;;;;;;10.85;6.40;;;;;;;10.07;100.00;96232.31;5030698;28;20045;-67
2022/10/26 07:53:29;;;;;;;14.48;6.78;;;;;;;10.10;100.00;96240.75;5030887;28;20106;-67
2022/10/26 07:55:56;;;;;;;16.02;6.80;;;;;;;10.11;100.00;96237.16;5030296;28;20056;-66
2022/10/26 07:58:24;;;;;;;11.60;6.13;;;;;;;10.13;100.00;96237.88;5031128;28;20032;-69
2022/10/26 08:00:53;;;;;;;18.55;6.88;;;;;;;10.13;100.00;96240.50;5030337;28;20076;-70
2022/10/26 08:03:19;;;;;;;13.30;6.78;;;;;;;10.16;100.00;96237.63;5030699;28;20262;-70
2022/10/26 08:05:55;;;;;;;13.25;6.70;;;;;;;10.20;100.00;96242.66;5030812;28;20068;-69
2022/10/26 08:08:21;;;;;;;10.20;5.93;;;;;;;10.27;100.00;96239.38;5030711;28;20049;-70
2022/10/26 08:10:46;;;;;;;15.85;6.22;;;;;;;10.39;100.00;96239.31;5030412;28;20399;-70
2022/10/26 08:13:13;;;;;;;15.00;8.70;;;;;;;10.53;100.00;96231.16;5030880;28;20022;-70
2022/10/26 08:15:39;;;;;;;21.98;9.40;;;;;;;10.70;100.00;96234.16;5030204;28;20056;-67
2022/10/26 08:18:05;;;;;;;16.33;9.20;;;;;;;10.91;100.00;96236.78;5030814;28;20521;-67
2022/10/26 08:20:30;;;;;;;12.98;8.98;;;;;;;11.05;100.00;96240.88;5030186;28;20096;-60
2022/10/26 08:22:56;;;;;;;17.60;9.02;;;;;;;11.19;100.00;96242.31;5030670;28;20017;-61
2022/10/26 08:25:22;;;;;;;18.85;8.25;;;;;;;11.34;100.00;96234.06;5030154;28;20029;-60
2022/10/26 08:27:48;;;;;;;17.00;6.43;;;;;;;11.57;100.00;96242.56;5030486;28;20028;-60
2022/10/26 08:30:13;;;;;;;16.75;6.85;;;;;;;11.71;100.00;96247.47;5030505;28;20033;-60
2022/10/26 08:32:39;;;;;;;13.18;5.82;;;;;;;11.85;100.00;96250.72;5030015;28;20415;-60
2022/10/26 08:35:05;;;;;;;20.85;6.43;;;;;;;11.94;100.00;96255.16;5029065;28;20037;-61
2022/10/26 08:37:30;;;;;;;16.45;6.95;;;;;;;12.07;100.00;96252.28;5029161;28;20108;-66
2022/10/26 08:39:55;;;;;;;23.02;6.93;;;;;;;12.23;100.00;96251.75;5028987;28;20159;-60
2022/10/26 08:42:30;;;;;;;20.67;5.78;;;;;;;12.31;100.00;96254.53;5028495;28;20041;-60
2022/10/26 08:45:05;;;;;;;15.75;6.65;;;;;;;12.36;100.00;96250.63;5018103;28;20029;-60
2022/10/26 08:47:42;;;;;;;19.35;5.55;;;;;;;12.33;100.00;96257.03;5029639;28;20498;-60
2022/10/26 08:50:22;;;;;;;12.88;4.28;;;;;;;12.36;100.00;96269.13;5029541;28;20028;-60
2022/10/26 08:53:25;;;;;;;12.93;5.38;;;;;;;12.39;100.00;96267.03;5029775;28;20101;-61
2022/10/26 08:55:58;;;;;;;13.73;6.45;;;;;;;12.44;100.00;96259.53;5022591;28;20041;-70
2022/10/26 08:58:53;;;;;;;15.32;5.05;;;;;;;12.50;100.00;96260.78;5044985;28;20116;-70
2022/10/26 09:01:19;;;;;;;17.75;5.35;;;;;;;12.54;100.00;96266.59;5019331;28;20407;-69
2022/10/26 09:03:44;;;;;;;16.27;5.10;;;;;;;12.56;100.00;96267.28;5029221;28;20101;-69
2022/10/26 09:06:15;;;;;;;10.52;4.68;;;;;;;12.58;100.00;96254.78;5029520;28;20060;-70
2022/10/26 09:08:48;;;;;;;14.77;5.53;;;;;;;12.65;100.00;96263.84;5044492;28;20108;-70
2022/10/26 09:11:43;;;;;;;10.00;4.28;;;;;;;12.80;100.00;96264.22;5029166;28;20032;-70
2022/10/26 09:14:08;;;;;;;13.07;5.03;;;;;;;12.94;100.00;96264.75;5029422;28;20076;-68
2022/10/26 09:16:45;;;;;;;16.48;4.22;;;;;;;13.07;100.00;96267.09;5029866;28;20022;-69
2022/10/26 09:19:49;;;;;;;14.05;4.60;;;;;;;13.22;100.00;96268.28;5029595;28;20112;-69
2022/10/26 09:22:34;;;;;;;17.98;5.40;;;;;;;13.43;100.00;96270.75;5029305;28;20037;-69
2022/10/26 09:25:20;;;;;;;13.60;5.45;;;;;;;13.60;100.00;96266.50;5027757;28;20176;-69
2022/10/26 09:27:59;;;;;;;12.48;6.13;;;;;;;13.76;100.00;96267.66;5029492;28;20475;-70
2022/10/26 09:30:25;;;;;;;20.63;5.55;;;;;;;13.85;100.00;96274.72;5017913;28;20487;-71
2022/10/26 09:32:58;;;;;;;10.98;4.63;;;;;;;13.95;100.00;96273.84;5029350;28;20032;-60
2022/10/26 09:35:48;;;;;;;11.68;5.40;;;;;;;14.10;100.00;96268.88;5029974;28;20387;-65
2022/10/26 09:38:37;;;;;;;14.13;4.55;;;;;;;14.35;100.00;96261.16;5029056;28;20033;-70
2022/10/26 09:41:05;;;;;;;15.15;4.65;;;;;;;14.51;100.00;96261.31;5029228;28;20025;-70
2022/10/26 09:43:49;;;;;;;25.13;5.43;;;;;;;14.63;100.00;96266.34;5029077;28;20026;-70
2022/10/26 09:46:28;;;;;;;12.55;4.03;;;;;;;14.72;97.91;96273.44;5031421;28;20558;-70
2022/10/26 09:48:58;;;;;;;12.18;4.18;;;;;;;14.71;98.46;96269.94;5033479;28;20100;-70
2022/10/26 09:51:25;;;;;;;8.95;4.78;;;;;;;14.81;99.76;96271.66;5033907;28;20024;-70
2022/10/26 09:53:52;;;;;;;9.35;3.80;;;;;;;14.95;96.00;96273.75;5033224;28;20037;-68
2022/10/26 09:56:18;;;;;;;11.15;4.15;;;;;;;15.18;94.11;96271.44;5033044;28;20534;-65
2022/10/26 09:58:48;;;;;;;13.32;4.68;;;;;;;15.33;93.22;96278.78;5032992;28;20033;-64
2022/10/26 10:01:34;;;;;;;10.23;5.13;;;;;;;15.42;94.00;96271.69;5032295;28;20079;-64
2022/10/26 10:04:24;;;;;;;15.77;4.28;;;;;;;15.44;94.77;96270.56;5032052;28;20129;-64
2022/10/26 10:07:02;;;;;;;15.45;3.80;;;;;;;15.50;96.10;96281.53;5028057;28;20033;-64
2022/10/26 10:09:27;;;;;;;8.43;3.72;;;;;;;15.70;95.58;96279.47;5025390;28;20517;-64
2022/10/26 10:12:03;;;;;;;11.32;3.60;;;;;;;15.86;95.16;96289.31;5033061;28;20049;-69
2022/10/26 10:14:38;;;;;;;11.65;3.70;;;;;;;15.88;94.12;96285.53;5032640;28;20034;-60
2022/10/26 10:17:09;;;;;;;10.68;3.47;;;;;;;16.02;93.38;96283.25;5033189;28;20033;-59
2022/10/26 10:19:37;;;;;;;11.40;3.88;;;;;;;16.06;90.79;96289.09;5035083;28;20407;-59
2022/10/26 10:22:14;;;;;;;8.77;3.53;;;;;;;16.03;93.02;96279.59;5032506;28;20031;-60
2022/10/26 10:24:54;;;;;;;9.35;3.42;;;;;;;16.14;94.41;96287.28;5032519;28;20037;-59
2022/10/26 10:27:19;;;;;;;9.88;3.50;;;;;;;16.22;91.36;96281.13;5032239;28;20021;-59
2022/10/26 10:29:46;;;;;;;7.95;3.55;;;;;;;16.27;87.61;96281.50;5032428;28;20067;-60
2022/10/26 10:32:20;;;;;;;5.03;2.95;;;;;;;16.34;85.48;96279.00;5032368;28;20126;-67
2022/10/26 10:34:50;;;;;;;10.13;3.45;;;;;;;16.43;85.73;96282.50;5032176;28;20064;-65
2022/10/26 10:37:37;;;;;;;5.68;3.10;;;;;;;16.54;85.65;96278.69;5032154;28;20025;-65
2022/10/26 10:40:18;;;;;;;8.18;3.40;;;;;;;16.63;86.79;96276.88;5020379;28;20033;-65
2022/10/26 10:42:45;;;;;;;6.78;3.95;;;;;;;16.70;87.83;96280.56;5030828;28;20036;-65
2022/10/26 10:45:23;;;;;;;5.80;3.72;;;;;;;16.79;88.06;96274.22;5032056;28;20025;-66
2022/10/26 10:48:04;;;;;;;9.52;4.03;;;;;;;16.87;88.28;96271.53;5031926;28;20047;-65
2022/10/26 10:50:32;;;;;;;6.80;3.38;;;;;;;16.92;90.78;96267.59;5032072;28;20060;-60
2022/10/26 10:53:22;;;;;;;8.13;3.83;;;;;;;16.94;91.09;96261.06;5032185;28;20503;-67
2022/10/26 10:56:09;;;;;;;11.70;4.30;;;;;;;17.02;89.27;96268.25;5046742;28;20077;-69
2022/10/26 10:58:44;;;;;;;9.38;4.28;;;;;;;17.13;89.45;96265.25;5030703;28;20223;-69
2022/10/26 11:01:17;;;;;;;15.75;4.35;;;;;;;17.24;89.10;96260.56;5032414;28;20033;-69
2022/10/26 11:03:45;;;;;;;12.02;4.18;;;;;;;17.30;88.72;96271.38;5031601;28;20079;-68
2022/10/26 11:06:21;;;;;;;9.30;3.80;;;;;;;17.42;87.62;96263.84;5031710;28;20065;-69
2022/10/26 11:08:52;;;;;;;12.05;3.40;;;;;;;17.61;85.15;96261.78;5031278;28;20037;-71
2022/10/26 11:11:39;;;;;;;14.10;3.40;;;;;;;17.91;83.11;96261.97;5031419;28;20036;-67
2022/10/26 11:14:26;;;;;;;10.40;3.05;;;;;;;18.06;80.92;96258.63;5031498;28;20033;-69
2022/10/26 11:17:01;;;;;;;7.32;2.90;;;;;;;18.12;80.68;96265.91;5031463;28;20080;-68
2022/10/26 11:19:38;;;;;;;7.47;3.38;;;;;;;18.12;83.23;96260.56;5031197;28;20040;-68
2022/10/26 11:22:09;;;;;;;13.02;3.28;;;;;;;18.13;81.46;96268.41;5031306;28;20033;-69
2022/10/26 11:24:48;;;;;;;12.80;3.45;;;;;;;18.26;81.36;96262.50;5031540;28;20025;-68
2022/10/26 11:27:38;;;;;;;11.60;3.40;;;;;;;18.35;75.19;96263.28;5031371;28;20018;-70
2022/10/26 11:30:24;;;;;;;11.52;3.45;;;;;;;18.33;76.06;96266.09;5030958;28;20551;-72
2022/10/26 11:32:49;;;;;;;10.57;3.20;;;;;;;18.33;75.78;96268.78;5031212;28;20036;-65
2022/10/26 11:35:35;;;;;;;15.57;3.80;;;;;;;18.23;74.37;96270.81;5031178;28;20018;-65
2022/10/26 11:38:20;;;;;;;9.57;3.05;;;;;;;18.12;75.35;96272.03;5031152;28;20049;-65
2022/10/26 11:41:08;;;;;;;11.77;3.55;;;;;;;18.09;77.30;96261.75;5030669;28;20577;-65
2022/10/26 11:43:47;;;;;;;11.93;3.40;;;;;;;18.18;74.27;96263.38;5031513;28;20025;-65